createdAt,value
2022-10-22T00:01:07.370Z,100662.88
2022-10-22T00:03:34.116Z,100660.69
2022-10-22T00:06:01.108Z,100669.66
2022-10-22T00:08:27.985Z,100676.03
2022-10-22T00:10:55.772Z,100679.00
2022-10-22T00:13:23.299Z,100682.75
2022-10-22T00:15:49.975Z,100682.16
2022-10-22T00:18:16.589Z,100691.13
2022-10-22T00:20:44.265Z,100692.28
2022-10-22T00:23:10.872Z,100686.13
2022-10-22T00:25:37.541Z,100700.56
2022-10-22T00:28:04.368Z,100698.78
2022-10-22T00:30:31.067Z,100703.78
2022-10-22T00:32:57.593Z,100710.63
2022-10-22T00:35:24.277Z,100710.63
2022-10-22T00:37:50.794Z,100711.41
2022-10-22T00:40:18.903Z,100709.00
2022-10-22T00:42:45.466Z,100707.56
2022-10-22T00:45:12.211Z,100707.56
2022-10-22T00:47:54.958Z,100713.94
2022-10-22T00:50:56.499Z,100718.31
2022-10-22T00:53:26.928Z,100719.50
2022-10-22T00:55:55.626Z,100718.09
2022-10-22T00:58:26.077Z,100713.22
2022-10-22T01:00:53.081Z,100717.63
2022-10-22T01:03:20.816Z,100714.59
2022-10-22T01:05:59.544Z,100715.56
2022-10-22T01:08:46.409Z,100715.13
2022-10-22T01:11:27.928Z,100705.06
2022-10-22T01:14:21.807Z,100713.84
2022-10-22T01:17:26.856Z,100701.03
2022-10-22T01:20:12.338Z,100688.22
2022-10-22T01:22:59.879Z,100694.59
2022-10-22T01:25:51.095Z,100691.38
2022-10-22T01:28:28.981Z,100690.53
2022-10-22T01:30:59.806Z,100698.69
2022-10-22T01:33:28.202Z,100700.88
2022-10-22T01:35:55.352Z,100700.41
2022-10-22T01:38:24.847Z,100698.34
2022-10-22T01:40:51.913Z,100694.50
2022-10-22T01:43:18.626Z,100697.28
2022-10-22T01:45:51.782Z,100692.09
2022-10-22T01:48:54.191Z,100701.84
2022-10-22T01:51:36.931Z,100695.22
2022-10-22T01:54:12.972Z,100692.63
2022-10-22T01:56:54.623Z,100690.81
2022-10-22T01:59:58.941Z,100691.19
2022-10-22T02:02:52.847Z,100688.56
2022-10-22T02:05:30.018Z,100687.13
2022-10-22T02:08:15.838Z,100683.28
2022-10-22T02:10:45.122Z,100694.03
2022-10-22T02:13:21.500Z,100698.63
2022-10-22T02:15:51.742Z,100699.78
2022-10-22T02:18:22.315Z,100695.72
2022-10-22T02:20:49.588Z,100698.69
2022-10-22T02:23:21.199Z,100696.44
2022-10-22T02:25:52.107Z,100701.00
2022-10-22T02:28:38.098Z,100708.97
2022-10-22T02:31:19.373Z,100702.34
2022-10-22T02:33:50.678Z,100695.88
2022-10-22T02:36:19.022Z,100695.06
2022-10-22T02:38:48.006Z,100709.84
2022-10-22T02:41:16.678Z,100702.06
2022-10-22T02:43:48.863Z,100708.25
2022-10-22T02:46:16.737Z,100712.00
2022-10-22T02:48:43.255Z,100711.38
2022-10-22T02:51:11.533Z,100715.13
2022-10-22T02:53:38.066Z,100709.47
2022-10-22T02:56:05.410Z,100713.88
2022-10-22T02:58:31.967Z,100715.66
2022-10-22T03:00:58.831Z,100717.59
2022-10-22T03:03:25.384Z,100710.78
2022-10-22T03:05:52.085Z,100709.31
2022-10-22T03:08:18.788Z,100704.50
2022-10-22T03:10:45.688Z,100713.59
2022-10-22T03:13:12.249Z,100704.56
2022-10-22T03:15:38.951Z,100702.28
2022-10-22T03:18:05.554Z,100702.47
2022-10-22T03:20:32.221Z,100704.44
2022-10-22T03:22:59.017Z,100710.78
2022-10-22T03:25:27.596Z,100709.16
2022-10-22T03:27:56.911Z,100710.16
2022-10-22T03:30:23.503Z,100707.56
2022-10-22T03:32:50.221Z,100713.91
2022-10-22T03:35:17.064Z,100708.09
2022-10-22T03:37:44.815Z,100716.84
2022-10-22T03:40:12.706Z,100713.44
2022-10-22T03:42:41.544Z,100711.81
2022-10-22T03:45:08.665Z,100712.78
2022-10-22T03:47:36.765Z,100718.19
2022-10-22T03:50:04.770Z,100717.03
2022-10-22T03:52:37.142Z,100721.22
2022-10-22T03:55:05.045Z,100717.22
2022-10-22T03:57:32.528Z,100712.34
2022-10-22T03:59:59.217Z,100710.72
2022-10-22T04:02:25.919Z,100713.31
2022-10-22T04:04:52.525Z,100721.09
2022-10-22T04:07:19.478Z,100724.69
2022-10-22T04:09:46.051Z,100723.88
2022-10-22T04:12:12.716Z,100718.88
2022-10-22T04:14:39.253Z,100718.88
2022-10-22T04:17:05.904Z,100714.03
2022-10-22T04:19:32.985Z,100721.81
2022-10-22T04:22:00.342Z,100718.56
2022-10-22T04:24:26.945Z,100725.72
2022-10-22T04:26:56.790Z,100730.13
2022-10-22T04:29:24.058Z,100727.69
2022-10-22T04:31:51.004Z,100731.06
2022-10-22T04:34:17.640Z,100732.88
2022-10-22T04:37:03.331Z,100734.31
2022-10-22T04:39:29.964Z,100737.38
2022-10-22T04:41:56.947Z,100734.78
2022-10-22T04:44:23.517Z,100729.25
2022-10-22T04:46:50.427Z,100734.28
2022-10-22T04:49:17.063Z,100736.69
2022-10-22T04:51:45.451Z,100739.13
2022-10-22T04:54:11.985Z,100727.94
2022-10-22T04:56:38.589Z,100731.50
2022-10-22T04:59:07.130Z,100735.53
2022-10-22T05:01:45.366Z,100728.56
2022-10-22T05:04:17.000Z,100733.41
2022-10-22T05:07:02.066Z,100735.66
2022-10-22T05:09:28.749Z,100735.31
2022-10-22T05:11:55.519Z,100738.41
2022-10-22T05:14:24.426Z,100744.84
2022-10-22T05:16:52.391Z,100741.56
2022-10-22T05:19:32.196Z,100745.06
2022-10-22T05:22:01.119Z,100746.19
2022-10-22T05:24:29.508Z,100743.25
2022-10-22T05:26:58.107Z,100746.94
2022-10-22T05:29:25.865Z,100742.84
2022-10-22T05:31:53.315Z,100749.66
2022-10-22T05:34:19.959Z,100751.72
2022-10-22T05:36:46.583Z,100754.94
2022-10-22T05:39:13.491Z,100752.97
2022-10-22T05:41:41.289Z,100752.81
2022-10-22T05:44:07.998Z,100756.69
2022-10-22T05:46:53.032Z,100752.31
2022-10-22T05:49:19.605Z,100755.72
2022-10-22T05:51:46.858Z,100755.72
2022-10-22T05:54:19.174Z,100749.50
2022-10-22T05:56:47.707Z,100761.53
2022-10-22T05:59:14.352Z,100767.00
2022-10-22T06:01:41.537Z,100764.06
2022-10-22T06:04:11.464Z,100764.69
2022-10-22T06:06:57.062Z,100762.72
2022-10-22T06:09:34.283Z,100775.19
2022-10-22T06:12:01.468Z,100776.63
2022-10-22T06:14:28.971Z,100776.28
2022-10-22T06:16:55.586Z,100770.91
2022-10-22T06:19:23.756Z,100783.56
2022-10-22T06:21:50.383Z,100782.06
2022-10-22T06:24:17.207Z,100774.69
2022-10-22T06:26:44.953Z,100796.94
2022-10-22T06:29:11.679Z,100793.19
2022-10-22T06:31:57.105Z,100789.41
2022-10-22T06:34:23.676Z,100792.03
2022-10-22T06:36:51.933Z,100804.03
2022-10-22T06:39:18.488Z,100804.84
2022-10-22T06:41:45.744Z,100801.06
2022-10-22T06:44:15.676Z,100812.09
2022-10-22T06:46:43.603Z,100817.16
2022-10-22T06:49:14.272Z,100828.19
2022-10-22T06:51:41.128Z,100828.81
2022-10-22T06:54:07.811Z,100831.22
2022-10-22T06:56:34.549Z,100836.72
2022-10-22T06:59:01.144Z,100833.38
2022-10-22T07:01:33.026Z,100840.66
2022-10-22T07:04:00.104Z,100844.56
2022-10-22T07:06:28.919Z,100852.44
2022-10-22T07:08:57.729Z,100853.50
2022-10-22T07:11:30.262Z,100853.97
2022-10-22T07:13:59.204Z,100857.00
2022-10-22T07:16:29.681Z,100862.84
2022-10-22T07:31:16.988Z,100875.09
2022-10-22T07:33:44.025Z,100872.91
2022-10-22T07:36:17.490Z,100875.97
2022-10-22T07:38:48.697Z,100885.84
2022-10-22T07:41:17.110Z,100875.94
2022-10-22T07:43:43.690Z,100886.06
2022-10-22T07:46:10.718Z,100887.56
2022-10-22T07:48:38.095Z,100886.44
2022-10-22T07:51:05.538Z,100884.31
2022-10-22T07:53:32.412Z,100889.13
2022-10-22T07:55:59.015Z,100897.22
2022-10-22T07:58:25.975Z,100900.06
2022-10-22T08:00:56.581Z,100902.31
2022-10-22T08:03:23.204Z,100898.34
2022-10-22T08:05:49.868Z,100903.81
2022-10-22T08:08:17.006Z,100907.84
2022-10-22T08:10:44.382Z,100906.28
2022-10-22T08:13:11.519Z,100907.53
2022-10-22T08:15:38.647Z,100909.63
2022-10-22T08:18:06.084Z,100918.22
2022-10-22T08:20:33.027Z,100921.66
2022-10-22T08:22:59.932Z,100920.47
2022-10-22T08:25:26.673Z,100928.56
2022-10-22T08:27:53.466Z,100918.72
2022-10-22T08:30:20.324Z,100926.38
2022-10-22T08:32:49.315Z,100934.81
2022-10-22T08:35:18.196Z,100927.81
2022-10-22T08:37:44.783Z,100931.41
2022-10-22T08:40:23.295Z,100944.06
2022-10-22T08:43:09.334Z,100936.50
2022-10-22T08:45:41.568Z,100939.34
2022-10-22T08:48:30.191Z,100937.97
2022-10-22T08:50:58.088Z,100949.28
2022-10-22T08:54:07.029Z,100943.75
2022-10-22T08:56:37.045Z,100945.63
2022-10-22T08:59:08.813Z,100948.72
2022-10-22T09:01:41.748Z,100947.56
2022-10-22T09:04:26.336Z,100951.63
2022-10-22T09:06:55.776Z,100954.94
2022-10-22T09:09:27.747Z,100959.56
2022-10-22T09:11:58.064Z,100953.94
2022-10-22T09:14:26.466Z,100951.56
2022-10-22T09:17:11.326Z,100954.44
2022-10-22T09:19:56.864Z,100955.44
2022-10-22T09:25:26.189Z,100962.34
2022-10-22T09:27:58.167Z,100969.81
2022-10-22T09:30:29.805Z,100964.22
2022-10-22T09:33:26.785Z,100958.38
2022-10-22T09:35:54.421Z,100972.47
2022-10-22T09:38:30.273Z,100971.88
2022-10-22T09:40:59.718Z,100962.06
2022-10-22T09:43:26.303Z,100982.22
2022-10-22T09:45:59.073Z,100980.63
2022-10-22T09:48:52.469Z,100988.69
2022-10-22T09:51:19.281Z,100989.91
2022-10-22T09:53:48.608Z,100994.75
2022-10-22T09:56:25.237Z,100983.28
2022-10-22T09:58:52.010Z,101001.41
2022-10-22T10:01:30.027Z,101008.06
2022-10-22T10:04:09.678Z,101004.44
2022-10-22T10:06:40.299Z,101007.06
2022-10-22T10:09:15.727Z,101022.16
2022-10-22T10:11:53.883Z,101014.69
2022-10-22T10:14:42.829Z,101020.91
2022-10-22T10:17:18.874Z,101021.13
2022-10-22T10:19:45.460Z,101020.91
2022-10-22T10:22:23.712Z,101028.38
2022-10-22T10:24:56.235Z,101028.81
2022-10-22T10:27:39.584Z,101030.84
2022-10-22T10:30:11.928Z,101038.09
2022-10-22T10:33:03.349Z,101041.94
2022-10-22T10:35:48.383Z,101045.75
2022-10-22T10:38:39.867Z,101041.34
2022-10-22T10:41:31.124Z,101044.94
2022-10-22T10:44:16.295Z,101045.16
2022-10-22T10:47:05.478Z,101052.41
2022-10-22T10:49:35.371Z,101068.50
2022-10-22T10:52:21.297Z,101061.44
2022-10-22T10:55:22.480Z,101064.06
2022-10-22T10:58:27.292Z,101071.06
2022-10-22T11:00:57.809Z,101072.03
2022-10-22T11:03:36.517Z,101069.81
2022-10-22T11:06:20.484Z,101068.78
2022-10-22T11:09:27.219Z,101073.00
2022-10-22T11:12:02.723Z,101074.22
2022-10-22T11:14:41.646Z,101072.66
2022-10-22T11:17:17.121Z,101079.13
2022-10-22T11:20:01.615Z,101081.59
2022-10-22T11:22:50.478Z,101081.00
2022-10-22T11:25:34.867Z,101083.03
2022-10-22T11:28:20.036Z,101082.81
2022-10-22T11:30:55.075Z,101077.19
2022-10-22T11:33:26.787Z,101077.81
2022-10-22T11:35:53.583Z,101075.00
2022-10-22T11:38:26.105Z,101090.34
2022-10-22T11:41:06.630Z,101085.91
2022-10-22T11:43:49.189Z,101081.88
2022-10-22T11:46:15.656Z,101080.31
2022-10-22T11:48:42.759Z,101080.09
2022-10-22T11:51:38.035Z,101070.22
2022-10-22T11:54:44.332Z,101074.84
2022-10-22T11:57:16.847Z,101068.25
2022-10-22T12:00:06.797Z,101084.75
2022-10-22T12:02:46.055Z,101082.13
2022-10-22T12:05:22.993Z,101074.47
2022-10-22T12:08:24.922Z,101070.66
2022-10-22T12:11:00.348Z,101074.69
2022-10-22T12:13:30.494Z,101065.84
2022-10-22T12:16:01.530Z,101059.78
2022-10-22T12:18:41.228Z,101067.03
2022-10-22T12:21:14.060Z,101070.88
2022-10-22T12:23:40.998Z,101070.69
2022-10-22T12:26:23.568Z,101073.50
2022-10-22T12:28:50.180Z,101078.75
2022-10-22T12:31:17.576Z,101080.16
2022-10-22T12:33:44.556Z,101074.50
2022-10-22T12:36:18.677Z,101074.50
2022-10-22T12:38:48.354Z,101087.22
2022-10-22T12:41:15.086Z,101080.16
2022-10-22T12:43:41.716Z,101075.09
2022-10-22T12:46:13.920Z,101086.41
2022-10-22T12:48:44.072Z,101079.72
2022-10-22T12:51:18.174Z,101075.28
2022-10-22T12:53:50.862Z,101070.84
2022-10-22T12:56:28.491Z,101080.34
2022-10-22T12:59:22.370Z,101072.63
2022-10-22T13:01:50.287Z,101082.50
2022-10-22T13:04:23.601Z,101083.09
2022-10-22T13:07:06.865Z,101088.78
2022-10-22T13:09:56.092Z,101090.22
2022-10-22T13:12:36.037Z,101078.72
2022-10-22T13:15:23.071Z,101084.56
2022-10-22T13:17:52.288Z,101083.16
2022-10-22T13:20:21.044Z,101083.53
2022-10-22T13:23:00.299Z,101088.59
2022-10-22T13:25:30.625Z,101092.22
2022-10-22T13:28:17.105Z,101083.94
2022-10-22T13:30:55.951Z,101085.38
2022-10-22T13:33:34.600Z,101086.81
2022-10-22T13:36:01.720Z,101086.81
2022-10-22T13:38:29.157Z,101083.59
2022-10-22T13:40:56.715Z,101085.00
2022-10-22T13:43:23.429Z,101087.00
2022-10-22T13:45:54.239Z,101093.47
2022-10-22T13:48:23.554Z,101087.41
2022-10-22T13:50:51.678Z,101095.88
2022-10-22T13:53:22.087Z,101095.63
2022-10-22T13:55:50.248Z,101094.81
2022-10-22T13:58:24.813Z,101094.22
2022-10-22T14:00:55.841Z,101095.81
2022-10-22T14:03:29.683Z,101095.81
2022-10-22T14:05:56.371Z,101096.25
2022-10-22T14:08:26.007Z,101102.69
2022-10-22T14:10:53.008Z,101101.31
2022-10-22T14:13:20.279Z,101098.50
2022-10-22T14:15:49.995Z,101110.59
2022-10-22T14:18:25.584Z,101104.16
2022-10-22T14:21:01.531Z,101110.63
2022-10-22T14:23:30.640Z,101113.88
2022-10-22T14:25:58.493Z,101114.44
2022-10-22T14:28:25.395Z,101114.44
2022-10-22T14:30:52.603Z,101117.88
2022-10-22T14:33:27.152Z,101107.19
2022-10-22T14:35:57.199Z,101109.41
2022-10-22T14:38:24.105Z,101112.25
2022-10-22T14:40:50.682Z,101117.88
2022-10-22T14:43:29.051Z,101121.09
2022-10-22T14:45:56.097Z,101120.72
2022-10-22T14:48:22.693Z,101123.72
2022-10-22T14:50:49.815Z,101112.81
2022-10-22T14:53:19.427Z,101119.06
2022-10-22T14:55:47.476Z,101117.25
2022-10-22T14:58:14.971Z,101123.72
2022-10-22T15:00:43.204Z,101124.91
2022-10-22T15:03:11.621Z,101124.69
2022-10-22T15:05:44.379Z,101120.88
2022-10-22T15:08:13.177Z,101118.84
2022-10-22T15:10:40.288Z,101136.97
2022-10-22T15:13:07.043Z,101131.72
2022-10-22T15:15:34.113Z,101132.91
2022-10-22T15:18:01.992Z,101138.94
2022-10-22T15:20:28.942Z,101140.13
2022-10-22T15:22:56.574Z,101147.78
2022-10-22T15:25:23.243Z,101140.28
2022-10-22T15:27:51.292Z,101151.13
2022-10-22T15:30:20.723Z,101153.53
2022-10-22T15:32:47.297Z,101157.53
2022-10-22T15:35:13.998Z,101158.94
2022-10-22T15:37:40.551Z,101163.94
2022-10-22T15:40:08.848Z,101163.09
2022-10-22T15:42:35.467Z,101163.69
2022-10-22T15:45:02.340Z,101171.31
2022-10-22T15:47:31.136Z,101174.34
2022-10-22T15:49:58.144Z,101172.28
2022-10-22T15:52:24.922Z,101177.09
2022-10-22T15:54:51.572Z,101168.63
2022-10-22T15:57:18.156Z,101166.38
2022-10-22T15:59:44.977Z,101178.84
2022-10-22T16:02:11.671Z,101172.38
2022-10-22T16:04:39.278Z,101175.38
2022-10-22T16:07:05.963Z,101173.16
2022-10-22T16:09:32.569Z,101181.59
2022-10-22T16:11:59.305Z,101183.75
2022-10-22T16:14:25.881Z,101184.31
2022-10-22T16:16:55.521Z,101194.53
2022-10-22T16:19:23.675Z,101202.13
2022-10-22T16:21:51.758Z,101187.22
2022-10-22T16:24:19.584Z,101198.25
2022-10-22T16:26:46.666Z,101200.59
2022-10-22T16:29:13.468Z,101203.56
2022-10-22T16:31:41.265Z,101199.53
2022-10-22T16:34:08.084Z,101198.09
2022-10-22T16:36:36.746Z,101203.50
2022-10-22T16:39:05.146Z,101198.47
2022-10-22T16:41:40.808Z,101202.06
2022-10-22T16:44:08.804Z,101204.88
2022-10-22T16:46:39.119Z,101198.22
2022-10-22T16:49:06.952Z,101205.25
2022-10-22T16:51:35.433Z,101198.22
2022-10-22T16:54:03.652Z,101199.03
2022-10-22T16:56:32.225Z,101210.31
2022-10-22T16:58:59.035Z,101205.88
2022-10-22T17:01:29.094Z,101213.09
2022-10-22T17:03:59.390Z,101207.06
2022-10-22T17:06:26.093Z,101212.28
2022-10-22T17:08:52.856Z,101208.06
2022-10-22T17:11:22.716Z,101211.47
2022-10-22T17:13:52.653Z,101216.72
2022-10-22T17:16:22.259Z,101222.09
2022-10-22T17:18:49.117Z,101228.34
2022-10-22T17:21:16.739Z,101221.69
2022-10-22T17:23:43.735Z,101227.09
2022-10-22T17:26:20.891Z,101225.47
2022-10-22T17:28:48.289Z,101232.50
2022-10-22T17:31:20.778Z,101237.50
2022-10-22T17:33:48.817Z,101238.84
2022-10-22T17:36:17.209Z,101238.56
2022-10-22T17:38:48.292Z,101247.16
2022-10-22T17:41:24.215Z,101243.47
2022-10-22T17:43:51.047Z,101244.22
2022-10-22T17:46:24.068Z,101242.34
2022-10-22T17:48:52.632Z,101248.47
2022-10-22T17:51:20.495Z,101253.59
2022-10-22T17:53:47.615Z,101255.94
2022-10-22T17:56:20.083Z,101253.06
2022-10-22T17:58:46.663Z,101258.66
2022-10-22T18:01:28.834Z,101256.41
2022-10-22T18:04:00.372Z,101264.59
2022-10-22T18:06:27.115Z,101266.22
2022-10-22T18:11:27.473Z,101265.75
2022-10-22T18:13:56.826Z,101268.56
2022-10-22T18:16:25.208Z,101270.69
2022-10-22T18:18:54.154Z,101268.47
2022-10-22T18:21:23.269Z,101277.47
2022-10-22T18:23:50.389Z,101268.53
2022-10-22T18:26:20.340Z,101270.31
2022-10-22T18:28:49.542Z,101275.06
2022-10-22T18:31:21.070Z,101272.03
2022-10-22T18:33:48.806Z,101268.94
2022-10-22T18:36:19.230Z,101271.91
2022-10-22T18:38:51.244Z,101267.22
2022-10-22T18:41:20.005Z,101277.00
2022-10-22T18:43:53.945Z,101278.38
2022-10-22T18:46:40.258Z,101268.47
2022-10-22T18:49:11.754Z,101281.41
2022-10-22T18:51:38.369Z,101269.84
2022-10-22T18:54:21.635Z,101269.41
2022-10-22T18:56:49.021Z,101278.41
2022-10-22T18:59:21.410Z,101280.53
2022-10-22T19:01:48.830Z,101271.78
2022-10-22T19:04:15.551Z,101271.50
2022-10-22T19:06:45.292Z,101273.00
2022-10-22T19:09:14.529Z,101266.53
2022-10-22T19:11:43.525Z,101268.03
2022-10-22T19:14:10.082Z,101265.75
2022-10-22T19:16:37.666Z,101268.72
2022-10-22T19:19:06.767Z,101268.88
2022-10-22T19:21:33.653Z,101267.09
2022-10-22T19:24:00.949Z,101268.44
2022-10-22T19:26:29.844Z,101264.38
2022-10-22T19:28:57.634Z,101274.97
2022-10-22T19:31:27.138Z,101275.94
2022-10-22T19:33:56.544Z,101289.31
2022-10-22T19:36:25.358Z,101286.88
2022-10-22T19:38:52.433Z,101290.63
2022-10-22T19:41:21.601Z,101289.38
2022-10-22T19:43:51.527Z,101288.09
2022-10-22T19:46:18.947Z,101290.22
2022-10-22T19:51:20.767Z,101286.66
2022-10-22T19:53:48.104Z,101281.63
2022-10-22T19:56:18.952Z,101283.78
2022-10-22T19:58:46.222Z,101283.09
2022-10-22T20:01:15.442Z,101278.88
2022-10-22T20:03:43.131Z,101266.00
2022-10-22T20:06:11.845Z,101263.75
2022-10-22T20:08:39.282Z,101261.97
2022-10-22T20:11:13.342Z,101259.38
2022-10-22T20:16:06.879Z,101257.72
2022-10-22T20:18:34.177Z,101255.13
2022-10-22T20:21:08.805Z,101259.88
2022-10-22T20:23:35.704Z,101255.81
2022-10-22T20:26:02.398Z,101258.75
2022-10-22T20:28:28.968Z,101260.72
2022-10-22T20:30:55.526Z,101252.25
2022-10-22T20:33:22.361Z,101257.78
2022-10-22T20:36:02.989Z,101261.53
2022-10-22T20:38:29.638Z,101265.16
2022-10-22T20:41:06.369Z,101263.50
2022-10-22T20:43:33.018Z,101265.47
2022-10-22T20:46:00.099Z,101266.63
2022-10-22T20:48:31.255Z,101265.97
2022-10-22T20:50:59.189Z,101273.78
2022-10-22T20:53:26.281Z,101269.91
2022-10-22T20:55:57.464Z,101270.41
2022-10-22T20:58:26.940Z,101272.69
2022-10-22T21:00:55.077Z,101277.25
2022-10-22T21:03:22.153Z,101280.00
2022-10-22T21:05:48.977Z,101270.59
2022-10-22T21:08:17.640Z,101271.56
2022-10-22T21:10:49.212Z,101277.75
2022-10-22T21:13:16.881Z,101267.50
2022-10-22T21:15:43.652Z,101271.09
2022-10-22T21:18:10.251Z,101258.88
2022-10-22T21:20:38.937Z,101267.84
2022-10-22T21:23:05.838Z,101268.81
2022-10-22T21:25:32.567Z,101265.41
2022-10-22T21:27:59.238Z,101265.56
2022-10-22T21:30:25.987Z,101269.50
2022-10-22T21:32:52.682Z,101274.19
2022-10-22T21:35:19.299Z,101272.59
2022-10-22T21:37:45.996Z,101275.34
2022-10-22T21:40:12.966Z,101275.69
2022-10-22T21:42:40.841Z,101277.47
2022-10-22T21:45:12.179Z,101276.66
2022-10-22T21:47:41.248Z,101282.81
2022-10-22T21:50:08.431Z,101282.03
2022-10-22T21:52:34.998Z,101283.81
2022-10-22T21:55:02.087Z,101280.56
2022-10-22T21:57:28.719Z,101275.50
2022-10-22T21:59:56.594Z,101284.94
2022-10-22T22:02:23.971Z,101284.13
2022-10-22T22:04:54.765Z,101286.75
2022-10-22T22:07:22.159Z,101285.78
2022-10-22T22:09:50.311Z,101296.31
2022-10-22T22:12:18.135Z,101293.91
2022-10-22T22:14:47.002Z,101297.31
2022-10-22T22:17:15.477Z,101296.31
2022-10-22T22:19:42.757Z,101299.75
2022-10-22T22:22:09.345Z,101287.38
2022-10-22T22:24:35.992Z,101291.63
2022-10-22T22:27:02.629Z,101282.69
2022-10-22T22:29:29.502Z,101290.31
2022-10-22T22:31:56.201Z,101276.34
2022-10-22T22:34:22.836Z,101286.75
2022-10-22T22:36:49.902Z,101285.75
2022-10-22T22:39:19.961Z,101278.75
2022-10-22T22:41:47.521Z,101277.78
2022-10-22T22:44:16.043Z,101278.75
2022-10-22T22:46:42.859Z,101265.75
2022-10-22T22:49:09.639Z,101274.38
2022-10-22T22:51:36.448Z,101276.81
2022-10-22T22:54:03.260Z,101265.75
2022-10-22T22:56:34.261Z,101277.13
2022-10-22T22:59:01.016Z,101272.09
2022-10-22T23:01:29.632Z,101267.88
2022-10-22T23:04:10.357Z,101260.22
2022-10-22T23:06:37.752Z,101267.22
2022-10-22T23:09:06.255Z,101263.00
2022-10-22T23:11:33.129Z,101258.63
2022-10-22T23:14:02.089Z,101253.56
2022-10-22T23:16:31.434Z,101251.78
2022-10-22T23:18:59.085Z,101254.56
2022-10-22T23:21:28.651Z,101253.75
2022-10-22T23:23:57.520Z,101250.31
2022-10-22T23:26:27.830Z,101245.13
2022-10-22T23:28:54.651Z,101242.69
2022-10-22T23:31:21.839Z,101241.06
2022-10-22T23:33:49.501Z,101241.06
2022-10-22T23:36:16.107Z,101233.25
2022-10-22T23:38:43.472Z,101237.63
2022-10-22T23:41:10.182Z,101235.84
2022-10-22T23:43:38.336Z,101240.09
2022-10-22T23:46:06.858Z,101236.50
2022-10-22T23:48:34.040Z,101233.09
2022-10-22T23:51:11.912Z,101232.09
2022-10-22T23:53:38.838Z,101217.50
2022-10-22T23:56:07.717Z,101215.84
2022-10-22T23:58:34.863Z,101215.03
